Time;durP1;ratioP1;P1;durP2;ratioP2;P2;SDS_P1;SDS_P2;PMS_P1;PMS_P2;Temp;Humidity;BMP_temperature;BMP_pressure;BME280_temperature;BME280_humidity;BME280_pressure;Samples;Min_cycle;Max_cycle;Signal;HPM_P1;HPM_P2
2022/05/03 00:00:42;;;;;;;8.32;6.75;;;;;;;9.82;75.26;93199.13;5048543;28;20491;-48
2022/05/03 00:03:33;;;;;;;9.05;6.80;;;;;;;9.81;75.96;93200.44;5051707;28;20383;-49
2022/05/03 00:06:11;;;;;;;9.27;6.18;;;;;;;9.74;76.66;93192.88;5048908;28;20041;-52
2022/05/03 00:08:49;;;;;;;7.65;6.35;;;;;;;9.68;75.95;93175.78;5051883;28;20102;-48
2022/05/03 00:11:40;;;;;;;9.98;6.22;;;;;;;9.72;76.49;93187.91;5051816;28;20445;-48
2022/05/03 00:14:15;;;;;;;8.30;6.90;;;;;;;9.61;77.70;93191.03;5051459;28;20025;-49
2022/05/03 00:16:41;;;;;;;8.20;6.82;;;;;;;9.64;77.02;93186.41;5050529;28;20462;-52
2022/05/03 00:19:07;;;;;;;8.15;7.35;;;;;;;9.54;77.70;93189.00;5051192;28;20517;-49
2022/05/03 00:21:36;;;;;;;9.77;6.82;;;;;;;9.54;78.30;93194.50;5051299;28;20028;-48
2022/05/03 00:24:03;;;;;;;14.75;6.95;;;;;;;9.38;78.63;93187.47;5051191;28;20037;-49
2022/05/03 00:26:29;;;;;;;8.02;6.95;;;;;;;9.39;79.25;93193.72;5051142;28;20044;-51
2022/05/03 00:28:59;;;;;;;9.63;7.22;;;;;;;9.24;79.13;93186.16;5051137;28;20035;-52
2022/05/03 00:31:25;;;;;;;;;;;;;;;9.38;78.54;93183.97;5051976;28;20032;-50
2022/05/03 00:33:51;;;;;;;9.57;6.70;;;;;;;9.27;79.11;93195.34;5051334;28;19943;-48
2022/05/03 00:36:16;;;;;;;9.07;7.38;;;;;;;9.13;79.47;93195.50;5049754;28;20032;-49
2022/05/03 00:38:42;;;;;;;10.85;6.53;;;;;;;8.93;80.08;93190.81;5050608;28;20087;-50
2022/05/03 00:41:08;;;;;;;10.40;7.85;;;;;;;8.90;81.46;93193.94;5050310;28;20032;-50
2022/05/03 00:43:52;;;;;;;10.38;7.57;;;;;;;8.91;81.29;93189.88;5049239;28;20514;-47
2022/05/03 00:46:21;;;;;;;9.07;6.95;;;;;;;8.93;81.72;93193.56;5051088;28;20039;-49
2022/05/03 00:49:02;;;;;;;11.93;7.75;;;;;;;8.99;81.93;93193.41;5049939;28;20021;-50
2022/05/03 00:51:52;;;;;;;8.45;7.15;;;;;;;9.08;81.31;93193.63;5050976;28;20086;-52
2022/05/03 00:54:23;;;;;;;8.52;6.50;;;;;;;8.96;80.06;93194.50;5050637;28;20757;-52
2022/05/03 00:56:54;;;;;;;10.82;6.68;;;;;;;9.04;80.35;93192.50;5050954;28;20414;-50
2022/05/03 01:00:06;;;;;;;6.95;6.00;;;;;;;9.04;79.41;93190.50;5050473;28;20475;-52
2022/05/03 01:03:07;;;;;;;11.82;6.57;;;;;;;9.14;78.22;93180.44;5050559;28;20506;-50
2022/05/03 01:05:47;;;;;;;8.50;5.03;;;;;;;9.18;76.19;93184.84;5050445;28;20033;-50
2022/05/03 01:08:29;;;;;;;6.38;5.20;;;;;;;9.14;75.18;93187.94;5050763;28;20021;-49
2022/05/03 01:11:26;;;;;;;7.13;3.92;;;;;;;8.97;75.13;93187.69;5049553;28;20021;-51
2022/05/03 01:14:13;;;;;;;4.72;3.85;;;;;;;9.02;74.10;93184.81;5049500;28;20032;-49
2022/05/03 01:16:45;;;;;;;4.93;3.92;;;;;;;9.10;74.23;93182.06;5049975;28;20025;-50
2022/05/03 01:19:41;;;;;;;4.18;3.75;;;;;;;9.03;73.72;93180.75;5050095;28;20028;-50
2022/05/03 01:22:08;;;;;;;8.43;3.72;;;;;;;9.04;73.73;93179.47;5050221;28;20031;-48
2022/05/03 01:24:43;;;;;;;4.10;3.70;;;;;;;8.99;72.22;93179.63;5050426;28;20128;-49
2022/05/03 01:27:47;;;;;;;7.13;3.55;;;;;;;8.93;73.15;93176.31;5049023;28;20541;-51
2022/05/03 01:30:13;;;;;;;3.53;3.22;;;;;;;8.89;73.25;93179.41;5045135;28;20039;-48
2022/05/03 01:32:43;;;;;;;4.95;3.80;;;;;;;8.88;73.37;93177.94;5048979;28;20477;-51
2022/05/03 01:35:12;;;;;;;5.32;3.70;;;;;;;8.80;74.73;93174.41;5050034;28;20028;-50
2022/05/03 01:38:02;;;;;;;4.70;3.87;;;;;;;8.84;74.05;93183.06;5050466;28;20020;-51
2022/05/03 01:40:33;;;;;;;6.95;4.70;;;;;;;8.87;75.25;93172.97;5050284;28;20029;-50
2022/05/03 01:43:07;;;;;;;5.07;3.83;;;;;;;8.81;75.55;93172.41;5049771;28;20121;-50
2022/05/03 01:45:56;;;;;;;4.70;4.30;;;;;;;8.70;76.59;93170.72;5050280;28;20079;-47
2022/05/03 01:51:26;;;;;;;4.68;3.63;;;;;;;8.60;78.19;93161.47;5050321;28;20032;-48
2022/05/03 01:54:17;;;;;;;5.45;4.20;;;;;;;8.44;78.44;93159.94;5050231;28;20029;-47
2022/05/03 01:56:58;;;;;;;3.53;3.20;;;;;;;8.63;78.58;93162.41;5049560;28;20037;-48
2022/05/03 01:59:29;;;;;;;7.28;3.90;;;;;;;8.66;77.72;93167.59;5048926;28;20425;-48
2022/05/03 02:02:02;;;;;;;5.43;4.40;;;;;;;8.65;77.32;93162.59;5049937;28;20064;-48
2022/05/03 02:04:48;;;;;;;7.43;5.32;;;;;;;8.69;77.64;93169.22;5048646;28;20063;-49
2022/05/03 02:07:53;;;;;;;5.43;4.68;;;;;;;8.75;77.63;93166.34;5048601;28;20024;-51
2022/05/03 02:10:55;;;;;;;7.65;4.28;;;;;;;8.77;76.70;93174.78;5050004;28;20025;-51
2022/05/03 02:16:30;;;;;;;4.85;4.35;;;;;;;8.67;78.43;93171.78;5049934;28;20044;-50
2022/05/03 02:19:33;;;;;;;3.90;3.53;;;;;;;8.61;77.99;93167.72;5049958;28;20028;-49
2022/05/03 02:22:17;;;;;;;6.43;4.00;;;;;;;8.66;78.17;93169.59;5048378;28;20029;-48
2022/05/03 02:24:55;;;;;;;5.45;3.97;;;;;;;8.69;78.06;93174.72;5049910;28;20045;-49
2022/05/03 02:27:21;;;;;;;5.28;3.92;;;;;;;8.63;77.63;93170.66;5050281;28;20029;-48
2022/05/03 02:29:49;;;;;;;6.13;3.92;;;;;;;8.61;75.17;93171.22;5052249;28;20021;-50
2022/05/03 02:32:33;;;;;;;4.90;4.38;;;;;;;8.42;77.13;93168.00;5053367;28;20494;-47
2022/05/03 02:35:03;;;;;;;7.32;4.10;;;;;;;8.36;75.71;93162.63;5053638;28;20035;-49
2022/05/03 02:37:35;;;;;;;4.25;3.53;;;;;;;8.36;74.47;93170.13;5053640;28;20028;-51
2022/05/03 02:40:07;;;;;;;5.97;4.32;;;;;;;8.35;74.68;93163.91;5051930;28;20043;-50
2022/05/03 02:42:33;;;;;;;5.38;4.57;;;;;;;8.25;76.14;93162.19;5052744;28;20036;-52
2022/05/03 02:45:01;;;;;;;4.38;3.53;;;;;;;8.27;75.80;93159.66;5053012;28;20424;-51
2022/05/03 02:47:29;;;;;;;6.72;4.93;;;;;;;8.26;77.15;93161.66;5053367;28;20043;-48
2022/05/03 02:50:00;;;;;;;5.53;4.72;;;;;;;8.29;77.04;93159.84;5053068;28;20554;-50
2022/05/03 02:52:33;;;;;;;4.90;4.40;;;;;;;8.32;77.85;93158.75;5053262;28;20115;-51
2022/05/03 02:55:21;;;;;;;5.70;4.70;;;;;;;8.40;76.70;93159.56;5053240;28;20021;-52
2022/05/03 02:58:05;;;;;;;7.50;4.90;;;;;;;8.28;77.33;93166.63;5052959;28;20035;-48
2022/05/03 03:03:54;;;;;;;6.63;5.03;;;;;;;8.11;77.16;93133.28;5053058;28;20044;-51
2022/05/03 03:06:22;;;;;;;6.85;4.47;;;;;;;8.25;78.18;93151.19;5051538;28;20051;-48
2022/05/03 03:08:50;;;;;;;10.77;5.03;;;;;;;8.27;77.94;93162.41;5052981;28;20044;-49
2022/05/03 03:11:41;;;;;;;5.72;5.15;;;;;;;8.15;78.75;93169.44;5051407;28;20112;-52
2022/05/03 03:14:27;;;;;;;6.53;4.95;;;;;;;8.19;78.72;93167.81;5032986;28;20040;-51
2022/05/03 03:17:05;;;;;;;6.25;4.90;;;;;;;8.11;79.27;93164.28;5032377;28;20125;-48
2022/05/03 03:19:52;;;;;;;5.63;5.05;;;;;;;8.22;78.94;93171.50;5032527;28;20029;-51
2022/05/03 03:22:19;;;;;;;7.28;5.38;;;;;;;7.99;80.04;93165.13;5032861;28;20051;-51
2022/05/03 03:24:47;;;;;;;6.38;5.20;;;;;;;8.03;79.97;93174.50;5051976;28;20033;-51
2022/05/03 03:27:13;;;;;;;7.72;6.05;;;;;;;7.93;80.25;93167.25;5051440;28;20036;-52
2022/05/03 03:29:40;;;;;;;8.63;6.20;;;;;;;7.83;80.06;93166.25;5052283;28;20498;-47
2022/05/03 03:32:07;;;;;;;5.97;5.05;;;;;;;7.85;79.40;93152.72;5052607;28;20048;-52
2022/05/03 03:34:33;;;;;;;6.63;5.35;;;;;;;8.04;78.95;93169.72;5052160;28;20025;-51
2022/05/03 03:37:04;;;;;;;8.63;5.03;;;;;;;7.97;79.25;93173.16;5051026;28;20029;-49
2022/05/03 03:39:31;;;;;;;6.15;5.18;;;;;;;8.00;79.09;93180.31;5051845;28;20028;-50
2022/05/03 03:42:05;;;;;;;6.25;5.65;;;;;;;8.02;78.82;93183.25;5052102;28;20039;-51
2022/05/03 03:44:31;;;;;;;5.50;4.72;;;;;;;7.94;79.67;93182.47;5051911;28;20049;-50
2022/05/03 03:47:02;;;;;;;5.53;4.28;;;;;;;8.04;78.84;93191.72;5052015;28;20032;-48
2022/05/03 03:49:30;;;;;;;5.65;4.53;;;;;;;8.17;77.60;93192.38;5052328;28;20025;-49
2022/05/03 03:51:59;;;;;;;6.20;4.93;;;;;;;8.25;76.91;93189.69;5052254;28;20067;-49
2022/05/03 03:54:25;;;;;;;5.35;4.65;;;;;;;8.20;77.78;93190.56;5051879;28;20116;-49
2022/05/03 03:56:51;;;;;;;4.78;4.28;;;;;;;8.16;78.20;93195.66;5051791;28;20503;-52
2022/05/03 03:59:17;;;;;;;7.82;4.43;;;;;;;8.14;77.39;93193.44;5051984;28;20029;-52
2022/05/03 04:01:43;;;;;;;4.53;3.80;;;;;;;8.11;76.00;93197.28;5051969;28;20058;-47
2022/05/03 04:04:11;;;;;;;3.97;3.60;;;;;;;8.08;76.34;93195.59;5051563;28;20028;-50
2022/05/03 04:06:37;;;;;;;4.15;3.75;;;;;;;7.88;75.33;93195.63;5050773;28;20036;-48
2022/05/03 04:09:03;;;;;;;4.68;3.63;;;;;;;7.86;75.19;93179.66;5051417;28;20028;-48
2022/05/03 04:11:28;;;;;;;5.57;4.03;;;;;;;7.92;74.63;93193.28;5051779;28;20028;-47
2022/05/03 04:13:54;;;;;;;4.72;4.20;;;;;;;7.97;75.22;93197.91;5050516;28;20029;-47
2022/05/03 04:16:19;;;;;;;7.78;6.03;;;;;;;7.98;77.00;93180.13;5051647;28;20017;-49
2022/05/03 04:18:45;;;;;;;6.68;5.25;;;;;;;8.16;78.51;93201.16;5051634;28;20479;-49
2022/05/03 04:21:18;;;;;;;9.10;6.45;;;;;;;8.20;78.26;93201.56;5051596;28;20104;-50
2022/05/03 04:23:45;;;;;;;11.95;7.88;;;;;;;8.33;77.66;93201.50;5051519;28;20458;-50
2022/05/03 04:26:11;;;;;;;7.93;5.13;;;;;;;8.44;77.85;93187.44;5051514;28;20033;-51
2022/05/03 04:28:38;;;;;;;5.60;5.00;;;;;;;8.52;76.41;93199.22;5051481;28;20056;-49
2022/05/03 04:31:03;;;;;;;5.63;4.63;;;;;;;8.54;74.51;93204.94;5051110;28;20108;-48
2022/05/03 04:33:29;;;;;;;10.23;6.20;;;;;;;8.62;73.68;93204.97;5051118;28;20052;-48
2022/05/03 04:35:54;;;;;;;8.70;4.70;;;;;;;8.64;69.86;93208.63;5051031;28;20064;-50
2022/05/03 04:38:20;;;;;;;8.82;5.82;;;;;;;8.77;71.34;93205.06;5051058;28;20024;-48
2022/05/03 04:40:45;;;;;;;9.15;6.10;;;;;;;8.94;72.89;93205.31;5051196;28;20017;-51
2022/05/03 04:43:11;;;;;;;9.32;7.20;;;;;;;8.88;73.52;93213.00;5050606;28;20056;-50
2022/05/03 04:45:36;;;;;;;18.42;11.88;;;;;;;8.81;74.48;93208.19;5051233;28;20047;-50
2022/05/03 04:48:02;;;;;;;14.65;11.52;;;;;;;8.78;74.25;93218.28;5051058;28;20406;-52
2022/05/03 04:50:27;;;;;;;13.32;10.80;;;;;;;8.77;73.17;93208.53;5050158;28;20013;-50
2022/05/03 04:52:53;;;;;;;9.82;7.50;;;;;;;8.67;73.85;93204.81;5050640;28;20021;-47
2022/05/03 04:55:18;;;;;;;6.18;5.18;;;;;;;8.74;71.53;93203.38;5050717;28;20038;-51
2022/05/03 04:57:44;;;;;;;6.50;4.93;;;;;;;8.81;70.68;93205.44;5050652;28;20024;-50
2022/05/03 05:00:09;;;;;;;6.85;3.58;;;;;;;8.88;67.10;93207.50;5050805;28;20020;-51
2022/05/03 05:02:37;;;;;;;4.85;3.90;;;;;;;8.94;67.03;93206.03;5050880;28;20067;-50
2022/05/03 05:05:03;;;;;;;3.10;2.80;;;;;;;8.80;65.27;93207.47;5050459;28;20028;-52
2022/05/03 05:07:28;;;;;;;7.82;2.60;;;;;;;8.98;64.95;93200.94;5050809;28;20439;-50
2022/05/03 05:12:38;;;;;;;12.93;9.52;;;;;;;8.96;68.86;93187.00;5050534;28;20174;-50
2022/05/03 05:15:04;;;;;;;12.32;8.18;;;;;;;9.18;69.88;93208.34;5049490;28;20029;-48
2022/05/03 05:17:33;;;;;;;7.32;5.57;;;;;;;9.34;68.38;93222.16;5050268;28;20025;-49
2022/05/03 05:19:58;;;;;;;9.43;4.82;;;;;;;9.21;67.06;93211.28;5050639;28;20021;-50
2022/05/03 05:22:23;;;;;;;7.68;5.82;;;;;;;9.13;68.84;93233.31;5050514;28;20391;-48
2022/05/03 05:24:50;;;;;;;3.00;2.70;;;;;;;9.03;66.12;93218.59;5050519;28;20032;-52
2022/05/03 05:27:16;;;;;;;11.35;4.63;;;;;;;8.77;63.98;93219.53;5050226;28;20020;-51
2022/05/03 05:29:41;;;;;;;5.57;3.33;;;;;;;8.56;63.68;93216.13;5050157;28;20071;-52
2022/05/03 05:32:07;;;;;;;3.00;2.70;;;;;;;8.72;65.37;93228.72;5050236;28;20020;-48
2022/05/03 05:34:33;;;;;;;9.57;7.03;;;;;;;8.70;70.12;93236.03;5050330;28;20027;-51
2022/05/03 05:36:58;;;;;;;10.98;5.38;;;;;;;8.67;71.47;93228.84;5050460;28;20028;-51
2022/05/03 05:39:25;;;;;;;5.70;4.43;;;;;;;8.67;72.84;93237.09;5049950;28;20458;-49
2022/05/03 05:41:55;;;;;;;3.70;3.10;;;;;;;8.73;71.55;93229.41;5049728;28;20024;-51
2022/05/03 05:44:21;;;;;;;11.25;3.03;;;;;;;8.73;69.89;93235.66;5049892;28;20044;-49
2022/05/03 05:46:46;;;;;;;6.63;2.95;;;;;;;8.85;69.41;93236.84;5050066;28;20025;-49
2022/05/03 05:49:12;;;;;;;3.92;3.58;;;;;;;8.90;69.61;93241.44;5049907;28;20509;-50
2022/05/03 05:51:37;;;;;;;7.38;3.67;;;;;;;9.10;67.32;93254.41;5050031;28;20032;-48
2022/05/03 05:54:02;;;;;;;11.05;5.30;;;;;;;9.08;69.60;93254.22;5049902;28;20021;-50
2022/05/03 05:56:28;;;;;;;6.25;4.15;;;;;;;9.13;68.90;93253.34;5050274;28;20025;-51
2022/05/03 05:58:54;;;;;;;8.15;4.30;;;;;;;9.19;70.44;93261.44;5050074;28;20029;-49
2022/05/03 06:01:26;;;;;;;9.48;7.20;;;;;;;9.32;69.48;93266.81;5050578;28;20028;-49
2022/05/03 06:03:52;;;;;;;7.07;5.57;;;;;;;9.42;69.70;93270.50;5054193;28;20017;-51
2022/05/03 06:06:17;;;;;;;7.95;4.57;;;;;;;9.29;67.96;93245.13;5053938;28;20045;-51
2022/05/03 06:08:43;;;;;;;7.32;4.50;;;;;;;9.53;67.97;93274.97;5053871;28;20124;-48
2022/05/03 06:11:09;;;;;;;3.85;2.70;;;;;;;9.37;66.15;93270.69;5053755;28;20020;-51
2022/05/03 06:13:35;;;;;;;5.32;2.83;;;;;;;9.37;67.14;93274.19;5054033;28;20028;-50
2022/05/03 06:16:08;;;;;;;3.90;3.03;;;;;;;9.45;66.99;93282.47;5054045;28;20029;-48
2022/05/03 06:18:33;;;;;;;3.20;2.83;;;;;;;9.23;67.10;93269.31;5053605;28;20036;-51
2022/05/03 06:21:00;;;;;;;7.10;4.00;;;;;;;9.37;66.46;93281.72;5053606;28;20017;-50
2022/05/03 06:23:26;;;;;;;3.22;2.92;;;;;;;9.36;66.35;93288.47;5053441;28;20074;-52
2022/05/03 06:25:52;;;;;;;7.68;3.60;;;;;;;9.32;67.18;93274.31;5053775;28;20033;-50
2022/05/03 06:28:18;;;;;;;3.05;2.75;;;;;;;9.28;67.13;93279.47;5053797;28;20025;-51
2022/05/03 06:30:43;;;;;;;6.43;4.13;;;;;;;9.43;68.35;93285.78;5053677;28;20052;-50
2022/05/03 06:33:09;;;;;;;6.18;3.97;;;;;;;9.65;67.72;93292.66;5053392;28;20486;-51
2022/05/03 06:35:34;;;;;;;7.10;3.72;;;;;;;9.52;67.51;93290.03;5053607;28;20021;-50
2022/05/03 06:38:00;;;;;;;5.95;4.38;;;;;;;9.50;68.13;93293.34;5053597;28;20029;-52
2022/05/03 06:40:25;;;;;;;5.53;3.22;;;;;;;9.16;69.26;93293.53;5053101;28;20060;-50
2022/05/03 06:42:51;;;;;;;8.55;4.75;;;;;;;9.07;69.66;93288.53;5052992;28;20048;-50
2022/05/03 06:45:17;;;;;;;5.00;3.53;;;;;;;9.18;69.50;93289.53;5053467;28;20083;-49
2022/05/03 06:47:42;;;;;;;3.28;2.95;;;;;;;9.01;69.23;93289.97;5053343;28;20033;-51
2022/05/03 06:50:09;;;;;;;3.38;2.95;;;;;;;9.10;69.71;93301.22;5053088;28;20562;-49
2022/05/03 06:52:34;;;;;;;3.00;2.70;;;;;;;9.37;68.62;93298.25;5053273;28;20103;-49
2022/05/03 06:55:00;;;;;;;4.38;2.67;;;;;;;9.50;68.12;93303.63;5053035;28;20104;-48
2022/05/03 06:57:25;;;;;;;4.97;3.13;;;;;;;9.47;68.29;93302.69;5052957;28;20461;-51
2022/05/03 06:59:51;;;;;;;6.22;3.47;;;;;;;9.23;67.16;93310.66;5052769;28;20418;-51
2022/05/03 07:02:16;;;;;;;3.67;2.75;;;;;;;9.09;66.04;93304.53;5052908;28;20040;-49
2022/05/03 07:04:46;;;;;;;3.28;2.70;;;;;;;9.09;67.52;93315.53;5053107;28;20029;-49
2022/05/03 07:07:12;;;;;;;3.25;2.95;;;;;;;9.13;69.49;93302.91;5052719;28;20064;-49
2022/05/03 07:09:38;;;;;;;5.43;3.22;;;;;;;8.96;67.81;93310.16;5053077;28;20021;-50
2022/05/03 07:12:03;;;;;;;4.63;3.17;;;;;;;9.14;68.22;93311.88;5052884;28;20032;-49
2022/05/03 07:14:29;;;;;;;3.20;2.80;;;;;;;9.18;67.42;93311.56;5051926;28;20082;-48
2022/05/03 07:16:54;;;;;;;3.67;2.80;;;;;;;9.35;67.68;93309.06;5052540;28;20032;-49
2022/05/03 08:08:13;;;;;;;2.50;1.38;;;;;;;14.49;48.77;93307.38;5063933;28;20612;-48
2022/05/03 08:10:38;;;;;;;2.10;1.50;;;;;;;14.49;49.10;93310.88;5064272;28;20415;-49
2022/05/03 08:13:04;;;;;;;1.63;1.52;;;;;;;14.41;50.86;93308.22;5064212;28;20520;-49
2022/05/03 08:15:29;;;;;;;3.17;1.50;;;;;;;14.75;47.83;93310.13;5063750;28;20104;-49
2022/05/03 08:17:55;;;;;;;1.42;1.30;;;;;;;15.28;47.80;93305.72;5064210;28;20555;-49
2022/05/03 08:20:20;;;;;;;1.13;1.05;;;;;;;15.40;45.52;93317.75;5064119;28;20052;-50
2022/05/03 08:22:46;;;;;;;4.30;1.60;;;;;;;15.32;47.56;93306.75;5064128;28;20056;-49
2022/05/03 08:25:11;;;;;;;1.27;1.13;;;;;;;14.92;45.82;93314.88;5064070;28;20016;-48
2022/05/03 08:27:38;;;;;;;1.17;1.15;;;;;;;14.38;47.81;93311.41;5063967;28;20030;-51
2022/05/03 08:30:05;;;;;;;1.30;1.20;;;;;;;13.52;47.42;93314.31;5063622;28;20033;-49
2022/05/03 08:32:30;;;;;;;1.60;1.08;;;;;;;13.20;50.11;93310.94;5063175;28;20035;-50
2022/05/03 08:34:56;;;;;;;4.65;1.40;;;;;;;12.84;50.42;93314.22;5063592;28;20017;-50
2022/05/03 08:42:51;;;;;;;1.40;1.27;;;;;;;12.00;52.27;93327.84;5063632;28;20028;-48
2022/05/03 08:45:16;;;;;;;1.30;1.20;;;;;;;11.36;54.28;93319.41;5063697;28;20021;-51
2022/05/03 08:47:41;;;;;;;2.17;1.27;;;;;;;11.74;54.68;93327.59;5062193;28;20517;-51
2022/05/03 08:50:09;;;;;;;1.58;1.23;;;;;;;11.78;54.29;93323.16;5062150;28;20020;-49
2022/05/03 08:52:42;;;;;;;2.05;1.50;;;;;;;12.04;53.68;93330.97;5062110;28;20029;-51
2022/05/03 08:55:07;;;;;;;4.28;2.10;;;;;;;12.19;54.45;93330.88;5062187;28;20081;-48
2022/05/03 08:57:33;;;;;;;2.60;1.65;;;;;;;12.13;51.80;93322.06;5062276;28;20017;-48
2022/05/03 08:59:59;;;;;;;1.33;1.23;;;;;;;12.08;52.79;93336.13;5062101;27;20032;-50
2022/05/03 09:02:25;;;;;;;1.60;1.42;;;;;;;12.06;53.17;93333.91;5061927;28;20061;-50
2022/05/03 09:04:50;;;;;;;1.30;1.20;;;;;;;12.22;52.86;93323.50;5063087;27;20013;-47
2022/05/03 09:07:21;;;;;;;1.35;1.25;;;;;;;12.30;52.58;93331.78;5060176;28;20490;-49
2022/05/03 09:09:48;;;;;;;2.63;1.85;;;;;;;12.27;52.30;93330.13;5049902;28;20111;-47
2022/05/03 09:12:28;;;;;;;2.42;1.80;;;;;;;12.42;53.50;93327.25;5049616;28;20780;-47
2022/05/03 09:14:59;;;;;;;2.58;1.67;;;;;;;12.29;51.43;93331.03;5049856;28;20028;-52
2022/05/03 09:17:35;;;;;;;2.55;1.80;;;;;;;12.44;52.27;93330.19;5049664;28;20517;-50
2022/05/03 09:23:46;;;;;;;1.63;1.52;;;;;;;12.50;50.09;93316.84;5049590;28;20053;-52
2022/05/03 09:25:35;;;;;;;1.42;1.33;;;;;;;12.54;49.85;93326.25;5049582;28;20524;-48
2022/05/03 09:28:07;;;;;;;5.28;1.42;;;;;;;12.61;50.43;93324.72;5049458;28;20056;-50
2022/05/03 09:30:32;;;;;;;1.35;1.25;;;;;;;12.68;50.63;93323.94;5049353;28;20029;-48
2022/05/03 09:32:57;;;;;;;1.70;1.50;;;;;;;12.90;50.15;93323.75;5049245;28;20040;-49
2022/05/03 09:35:34;;;;;;;1.48;1.38;;;;;;;12.94;50.56;93318.56;5049454;28;20089;-49
2022/05/03 09:38:04;;;;;;;1.40;1.30;;;;;;;12.87;48.54;93296.44;5049624;28;20037;-50
2022/05/03 09:40:36;;;;;;;1.33;1.23;;;;;;;13.21;49.63;93323.53;5049496;28;20037;-50
2022/05/03 09:43:05;;;;;;;1.20;1.10;;;;;;;13.29;47.34;93315.84;5049536;28;20036;-47
2022/05/03 09:45:31;;;;;;;1.42;1.33;;;;;;;13.51;48.63;93314.88;5049129;28;20029;-48
2022/05/03 09:47:59;;;;;;;1.98;1.77;;;;;;;14.14;48.40;93310.22;5049091;28;20036;-48
2022/05/03 09:50:45;;;;;;;2.17;1.60;;;;;;;14.65;46.86;93305.84;5049300;28;20048;-48
2022/05/03 09:53:17;;;;;;;1.50;1.15;;;;;;;14.52;43.41;93309.00;5049380;28;20108;-49
2022/05/03 09:55:45;;;;;;;1.42;1.33;;;;;;;14.64;44.85;93298.81;5048947;28;20040;-49
2022/05/03 09:58:12;;;;;;;2.30;1.70;;;;;;;14.93;46.38;93294.09;5049171;28;20564;-48
2022/05/03 10:00:46;;;;;;;5.05;1.25;;;;;;;15.22;44.23;93294.16;5047807;28;20035;-48
2022/05/03 10:03:12;;;;;;;3.85;1.85;;;;;;;15.18;42.32;93295.31;5049199;28;20048;-48
2022/05/03 10:05:39;;;;;;;2.67;1.42;;;;;;;14.91;43.83;93300.22;5047310;28;20454;-48
2022/05/03 10:08:05;;;;;;;2.42;1.30;;;;;;;14.67;43.11;93297.66;5048618;28;20041;-50
2022/05/03 10:10:31;;;;;;;2.28;1.58;;;;;;;14.60;45.92;93302.00;5049003;28;20112;-48
2022/05/03 10:12:58;;;;;;;2.17;1.60;;;;;;;14.97;43.26;93297.91;5048696;28;20557;-48
2022/05/03 10:21:03;;;;;;;3.05;1.20;;;;;;;14.95;42.59;93294.22;5047073;28;20036;-49
2022/05/03 10:23:34;;;;;;;2.25;1.17;;;;;;;15.11;42.63;93279.50;5047428;28;20065;-49
2022/05/03 10:26:08;;;;;;;2.03;1.50;;;;;;;14.55;42.32;93296.72;5047669;28;20032;-49
2022/05/03 10:29:08;;;;;;;1.52;1.42;;;;;;;14.16;43.38;93293.00;5047621;28;20033;-48
2022/05/03 10:31:57;;;;;;;1.50;1.40;;;;;;;13.87;44.90;93294.84;5048690;28;20108;-48
2022/05/03 10:34:52;;;;;;;1.65;1.52;;;;;;;13.93;44.47;93290.50;5048691;28;20028;-48
2022/05/03 10:37:38;;;;;;;2.85;1.52;;;;;;;13.94;45.75;93288.47;5048539;28;20076;-47
2022/05/03 10:40:09;;;;;;;2.20;1.92;;;;;;;14.08;47.78;93293.09;5044112;28;20041;-47
2022/05/03 10:42:34;;;;;;;1.90;1.80;;;;;;;14.23;45.88;93292.16;5048503;28;20052;-52
2022/05/03 10:45:01;;;;;;;5.28;2.25;;;;;;;14.04;45.48;93294.81;5048162;28;20057;-48
2022/05/03 10:47:41;;;;;;;2.10;1.88;;;;;;;13.54;46.53;93295.06;5048412;28;20078;-52
2022/05/03 10:50:12;;;;;;;3.03;1.55;;;;;;;13.40;46.57;93301.50;5048385;28;20029;-50
2022/05/03 10:52:43;;;;;;;3.55;1.60;;;;;;;13.41;46.32;93298.16;5048044;28;20109;-48
2022/05/03 10:55:10;;;;;;;3.42;1.45;;;;;;;13.46;45.27;93299.97;5048321;28;20089;-49
2022/05/03 10:58:13;;;;;;;2.33;1.25;;;;;;;13.37;47.59;93297.84;5047798;28;20466;-48
2022/05/03 11:01:00;;;;;;;4.85;1.42;;;;;;;13.45;45.59;93292.94;5048215;28;20116;-50
2022/05/03 11:03:25;;;;;;;1.83;1.63;;;;;;;13.03;47.56;93294.28;5048065;28;20033;-47
2022/05/03 11:06:18;;;;;;;3.80;2.13;;;;;;;13.44;49.15;93288.72;5047298;28;20024;-49
2022/05/03 11:11:37;;;;;;;5.80;4.15;;;;;;;13.53;46.00;93295.63;5048133;28;20120;-48
2022/05/03 11:14:24;;;;;;;2.17;1.70;;;;;;;13.64;48.10;93298.63;5048063;28;20449;-48
2022/05/03 11:17:05;;;;;;;2.15;1.30;;;;;;;13.69;47.74;93303.19;5054169;28;20037;-48
2022/05/03 11:19:36;;;;;;;1.70;1.60;;;;;;;13.51;45.01;93289.94;5047952;28;20032;-49
2022/05/03 11:22:08;;;;;;;5.55;3.60;;;;;;;13.79;45.15;93294.22;5047729;28;20112;-48
2022/05/03 11:24:36;;;;;;;2.05;1.85;;;;;;;14.05;44.72;93294.25;5047647;28;20031;-47
2022/05/03 11:27:05;;;;;;;3.45;1.40;;;;;;;14.00;44.12;93286.19;5047580;28;20046;-51
2022/05/03 11:29:37;;;;;;;;;;;;;;;13.90;45.46;93280.59;5048399;28;20025;-48
2022/05/03 11:32:06;;;;;;;1.35;1.25;;;;;;;13.98;45.03;93280.47;5047526;28;19909;-48
2022/05/03 11:34:32;;;;;;;3.15;2.58;;;;;;;13.84;46.06;93287.69;5047730;28;20025;-50
2022/05/03 11:36:58;;;;;;;1.92;1.83;;;;;;;13.51;45.87;93287.88;5047300;28;20025;-50
2022/05/03 11:39:24;;;;;;;5.40;3.05;;;;;;;13.30;47.28;93284.03;5047587;28;20075;-49
2022/05/03 11:41:50;;;;;;;2.00;1.90;;;;;;;13.05;48.08;93286.88;5047421;28;20060;-50
2022/05/03 11:44:16;;;;;;;2.13;2.03;;;;;;;12.95;49.07;93291.56;5047396;28;20049;-48
2022/05/03 11:46:43;;;;;;;3.28;2.70;;;;;;;12.90;48.46;93292.53;5047295;28;20477;-48
2022/05/03 11:49:10;;;;;;;3.22;2.90;;;;;;;12.65;48.99;93283.50;5047196;28;20030;-48
2022/05/03 11:57:24;;;;;;;2.50;2.30;;;;;;;12.59;50.93;93280.22;5047158;28;20036;-48
2022/05/03 11:59:58;;;;;;;2.70;2.05;;;;;;;12.51;50.74;93285.09;5046230;28;20086;-48
2022/05/03 12:02:36;;;;;;;2.20;2.00;;;;;;;12.43;51.87;93276.13;5047407;28;20081;-50
2022/05/03 12:05:04;;;;;;;2.05;1.95;;;;;;;12.42;51.13;93283.69;5047122;28;20450;-50
2022/05/03 12:08:02;;;;;;;2.53;2.20;;;;;;;12.59;51.66;93275.44;5046897;28;20084;-47
2022/05/03 12:10:35;;;;;;;2.10;1.90;;;;;;;12.75;53.09;93246.31;5034801;28;20041;-48
2022/05/03 12:13:18;;;;;;;5.13;3.58;;;;;;;13.10;52.42;93265.78;5046984;28;20021;-49
2022/05/03 12:15:56;;;;;;;2.75;2.40;;;;;;;13.43;50.87;93270.59;5046925;28;20052;-48
2022/05/03 12:18:25;;;;;;;4.23;3.37;;;;;;;13.64;49.61;93267.41;5047280;28;20116;-49
2022/05/03 12:21:03;;;;;;;3.83;2.72;;;;;;;13.81;51.05;93256.28;5047251;28;20033;-49
2022/05/03 12:23:31;;;;;;;5.22;3.42;;;;;;;13.97;49.55;93265.13;5046761;28;20025;-49
2022/05/03 12:25:59;;;;;;;3.23;2.90;;;;;;;14.12;50.29;93276.75;5047093;28;20028;-49
2022/05/03 12:28:39;;;;;;;5.60;3.47;;;;;;;14.18;50.74;93271.69;5046982;28;20797;-48
2022/05/03 12:31:06;;;;;;;2.75;2.50;;;;;;;14.23;48.14;93269.94;5047100;28;20390;-48
2022/05/03 12:33:32;;;;;;;3.25;2.83;;;;;;;14.32;48.73;93277.63;5046689;28;20572;-49
2022/05/03 12:35:58;;;;;;;7.20;3.40;;;;;;;14.29;48.73;93265.59;5046560;28;20106;-48
2022/05/03 12:38:25;;;;;;;5.35;3.63;;;;;;;14.07;48.77;93261.09;5046923;28;20104;-47
2022/05/03 12:40:59;;;;;;;8.38;6.10;;;;;;;14.06;49.37;93270.72;5046601;28;20025;-48
2022/05/03 12:43:28;;;;;;;2.67;2.25;;;;;;;13.66;49.70;93271.03;5048515;28;20032;-47
2022/05/03 12:46:01;;;;;;;6.90;4.93;;;;;;;13.45;49.42;93270.75;5050016;28;20048;-47
2022/05/03 12:48:28;;;;;;;6.18;4.20;;;;;;;13.32;51.17;93271.06;5050285;28;20458;-50
2022/05/03 12:50:57;;;;;;;3.85;2.00;;;;;;;13.16;50.73;93267.00;5049935;28;20032;-49
2022/05/03 12:53:24;;;;;;;1.75;1.55;;;;;;;13.04;50.82;93271.53;5049970;28;20024;-51
2022/05/03 12:55:51;;;;;;;5.70;1.92;;;;;;;13.06;51.95;93271.72;5050090;28;20093;-48
2022/05/03 12:58:22;;;;;;;3.83;1.80;;;;;;;13.07;51.02;93270.41;5049818;28;20036;-48
2022/05/03 13:00:59;;;;;;;1.67;1.58;;;;;;;12.79;51.47;93273.63;5050112;28;20021;-50
2022/05/03 13:03:24;;;;;;;1.58;1.42;;;;;;;12.75;52.11;93276.78;5050076;28;20029;-49
2022/05/03 13:05:50;;;;;;;1.75;1.33;;;;;;;12.89;51.18;93266.13;5049176;28;20508;-48
2022/05/03 13:08:17;;;;;;;1.83;1.65;;;;;;;12.88;52.62;93278.53;5050009;28;20170;-48
2022/05/03 13:10:43;;;;;;;1.67;1.58;;;;;;;12.95;50.53;93266.63;5049944;28;20545;-46
2022/05/03 13:13:09;;;;;;;2.85;1.48;;;;;;;12.75;51.96;93257.41;5049872;28;20029;-48
2022/05/03 13:15:35;;;;;;;1.70;1.60;;;;;;;12.99;52.95;93266.97;5049767;28;20036;-48
2022/05/03 13:18:01;;;;;;;1.33;1.05;;;;;;;13.09;51.28;93265.03;5049513;28;20029;-47
2022/05/03 13:20:27;;;;;;;2.05;1.40;;;;;;;13.12;50.64;93268.72;5049731;28;20064;-47